sensor_id;sensor_type;location;lat;lon;timestamp;P1;durP1;ratioP1;P2;durP2;ratioP2
15317;SDS011;7759;52.528;13.346;2023-07-29T00:00:59;4.60;;;3.40;;
15317;SDS011;7759;52.528;13.346;2023-07-29T00:03:26;4.60;;;3.28;;
15317;SDS011;7759;52.528;13.346;2023-07-29T00:05:52;4.05;;;3.38;;
15317;SDS011;7759;52.528;13.346;2023-07-29T00:08:17;5.47;;;3.47;;
15317;SDS011;7759;52.528;13.346;2023-07-29T00:10:43;4.18;;;3.50;;
15317;SDS011;7759;52.528;13.346;2023-07-29T00:13:09;3.90;;;3.50;;
15317;SDS011;7759;52.528;13.346;2023-07-29T00:15:35;3.72;;;3.35;;
15317;SDS011;7759;52.528;13.346;2023-07-29T00:18:01;4.65;;;3.45;;
15317;SDS011;7759;52.528;13.346;2023-07-29T00:20:27;5.03;;;3.83;;
15317;SDS011;7759;52.528;13.346;2023-07-29T00:22:53;4.63;;;3.63;;
15317;SDS011;7759;52.528;13.346;2023-07-29T00:25:19;4.78;;;3.58;;
15317;SDS011;7759;52.528;13.346;2023-07-29T00:27:45;4.97;;;3.95;;
15317;SDS011;7759;52.528;13.346;2023-07-29T00:30:11;4.07;;;3.53;;
15317;SDS011;7759;52.528;13.346;2023-07-29T00:32:37;4.10;;;3.42;;
15317;SDS011;7759;52.528;13.346;2023-07-29T00:35:03;4.25;;;3.40;;
15317;SDS011;7759;52.528;13.346;2023-07-29T00:37:29;5.88;;;3.58;;
15317;SDS011;7759;52.528;13.346;2023-07-29T00:39:56;4.97;;;3.70;;
15317;SDS011;7759;52.528;13.346;2023-07-29T00:42:23;4.65;;;3.67;;
15317;SDS011;7759;52.528;13.346;2023-07-29T00:44:48;4.75;;;3.65;;
15317;SDS011;7759;52.528;13.346;2023-07-29T00:47:14;4.75;;;3.80;;
15317;SDS011;7759;52.528;13.346;2023-07-29T00:49:41;5.55;;;4.55;;
15317;SDS011;7759;52.528;13.346;2023-07-29T00:52:07;4.43;;;3.70;;
15317;SDS011;7759;52.528;13.346;2023-07-29T00:54:33;6.13;;;4.38;;
15317;SDS011;7759;52.528;13.346;2023-07-29T00:56:59;4.40;;;3.75;;
15317;SDS011;7759;52.528;13.346;2023-07-29T00:59:25;4.50;;;3.83;;
15317;SDS011;7759;52.528;13.346;2023-07-29T01:01:53;5.50;;;4.05;;
15317;SDS011;7759;52.528;13.346;2023-07-29T01:04:18;4.65;;;3.67;;
15317;SDS011;7759;52.528;13.346;2023-07-29T01:06:53;4.55;;;3.92;;
15317;SDS011;7759;52.528;13.346;2023-07-29T01:09:40;5.25;;;4.00;;
15317;SDS011;7759;52.528;13.346;2023-07-29T01:12:10;5.10;;;3.65;;
15317;SDS011;7759;52.528;13.346;2023-07-29T01:14:41;3.63;;;3.28;;
15317;SDS011;7759;52.528;13.346;2023-07-29T01:17:13;4.28;;;3.63;;
15317;SDS011;7759;52.528;13.346;2023-07-29T01:22:28;11.90;;;4.25;;
15317;SDS011;7759;52.528;13.346;2023-07-29T01:24:55;5.50;;;3.75;;
15317;SDS011;7759;52.528;13.346;2023-07-29T01:27:21;4.03;;;3.58;;
15317;SDS011;7759;52.528;13.346;2023-07-29T01:29:47;5.30;;;4.18;;
15317;SDS011;7759;52.528;13.346;2023-07-29T01:32:22;4.80;;;3.75;;
15317;SDS011;7759;52.528;13.346;2023-07-29T01:35:00;7.85;;;4.47;;
15317;SDS011;7759;52.528;13.346;2023-07-29T01:37:30;6.18;;;4.75;;
15317;SDS011;7759;52.528;13.346;2023-07-29T01:39:58;5.93;;;4.63;;
15317;SDS011;7759;52.528;13.346;2023-07-29T01:42:24;4.72;;;3.97;;
15317;SDS011;7759;52.528;13.346;2023-07-29T01:44:51;4.80;;;3.97;;
15317;SDS011;7759;52.528;13.346;2023-07-29T01:47:17;7.43;;;4.50;;
15317;SDS011;7759;52.528;13.346;2023-07-29T01:49:43;4.55;;;4.03;;
15317;SDS011;7759;52.528;13.346;2023-07-29T01:52:09;7.93;;;4.38;;
15317;SDS011;7759;52.528;13.346;2023-07-29T01:54:35;6.63;;;4.45;;
15317;SDS011;7759;52.528;13.346;2023-07-29T01:57:01;6.15;;;4.75;;
15317;SDS011;7759;52.528;13.346;2023-07-29T01:59:27;4.95;;;4.07;;
15317;SDS011;7759;52.528;13.346;2023-07-29T02:01:53;5.40;;;4.45;;
15317;SDS011;7759;52.528;13.346;2023-07-29T02:04:18;7.15;;;4.68;;
15317;SDS011;7759;52.528;13.346;2023-07-29T02:06:44;5.15;;;4.35;;
15317;SDS011;7759;52.528;13.346;2023-07-29T02:09:10;5.07;;;4.22;;
15317;SDS011;7759;52.528;13.346;2023-07-29T02:11:36;6.90;;;4.60;;
15317;SDS011;7759;52.528;13.346;2023-07-29T02:14:02;5.00;;;3.88;;
15317;SDS011;7759;52.528;13.346;2023-07-29T02:16:28;6.93;;;4.05;;
15317;SDS011;7759;52.528;13.346;2023-07-29T02:18:54;4.82;;;4.00;;
15317;SDS011;7759;52.528;13.346;2023-07-29T02:21:20;6.25;;;4.43;;
15317;SDS011;7759;52.528;13.346;2023-07-29T02:23:46;5.13;;;4.13;;
15317;SDS011;7759;52.528;13.346;2023-07-29T02:26:11;6.28;;;4.38;;
15317;SDS011;7759;52.528;13.346;2023-07-29T02:28:37;5.25;;;4.30;;
15317;SDS011;7759;52.528;13.346;2023-07-29T02:34:02;5.47;;;3.78;;
15317;SDS011;7759;52.528;13.346;2023-07-29T02:36:29;5.53;;;4.03;;
15317;SDS011;7759;52.528;13.346;2023-07-29T02:38:54;5.32;;;4.45;;
15317;SDS011;7759;52.528;13.346;2023-07-29T02:41:20;5.25;;;4.25;;
15317;SDS011;7759;52.528;13.346;2023-07-29T02:43:49;5.47;;;4.68;;
15317;SDS011;7759;52.528;13.346;2023-07-29T02:46:16;5.90;;;4.57;;
15317;SDS011;7759;52.528;13.346;2023-07-29T02:48:42;6.53;;;3.85;;
15317;SDS011;7759;52.528;13.346;2023-07-29T02:51:08;5.35;;;4.40;;
15317;SDS011;7759;52.528;13.346;2023-07-29T02:53:34;4.70;;;4.00;;
15317;SDS011;7759;52.528;13.346;2023-07-29T02:56:01;5.15;;;4.25;;
15317;SDS011;7759;52.528;13.346;2023-07-29T02:58:27;6.85;;;4.30;;
15317;SDS011;7759;52.528;13.346;2023-07-29T03:00:54;7.10;;;3.92;;
15317;SDS011;7759;52.528;13.346;2023-07-29T03:03:25;4.70;;;3.97;;
15317;SDS011;7759;52.528;13.346;2023-07-29T03:05:56;5.28;;;4.28;;
15317;SDS011;7759;52.528;13.346;2023-07-29T03:08:22;6.72;;;4.53;;
15317;SDS011;7759;52.528;13.346;2023-07-29T03:10:49;6.03;;;4.60;;
15317;SDS011;7759;52.528;13.346;2023-07-29T03:13:14;6.00;;;4.18;;
15317;SDS011;7759;52.528;13.346;2023-07-29T03:15:40;5.88;;;4.47;;
15317;SDS011;7759;52.528;13.346;2023-07-29T03:18:06;6.18;;;4.65;;
15317;SDS011;7759;52.528;13.346;2023-07-29T03:20:32;5.75;;;4.63;;
15317;SDS011;7759;52.528;13.346;2023-07-29T03:22:58;5.68;;;4.68;;
15317;SDS011;7759;52.528;13.346;2023-07-29T03:25:24;5.43;;;3.95;;
15317;SDS011;7759;52.528;13.346;2023-07-29T03:27:50;5.07;;;4.03;;
15317;SDS011;7759;52.528;13.346;2023-07-29T03:30:18;7.80;;;4.10;;
15317;SDS011;7759;52.528;13.346;2023-07-29T03:32:44;6.40;;;4.50;;
15317;SDS011;7759;52.528;13.346;2023-07-29T03:35:10;5.25;;;4.53;;
15317;SDS011;7759;52.528;13.346;2023-07-29T03:37:36;6.18;;;4.78;;
15317;SDS011;7759;52.528;13.346;2023-07-29T03:40:02;6.90;;;4.72;;
15317;SDS011;7759;52.528;13.346;2023-07-29T03:42:29;5.93;;;4.20;;
15317;SDS011;7759;52.528;13.346;2023-07-29T03:44:55;5.47;;;4.53;;
15317;SDS011;7759;52.528;13.346;2023-07-29T03:47:21;5.88;;;4.32;;
15317;SDS011;7759;52.528;13.346;2023-07-29T03:49:47;4.80;;;4.00;;
15317;SDS011;7759;52.528;13.346;2023-07-29T03:52:12;4.82;;;4.20;;
15317;SDS011;7759;52.528;13.346;2023-07-29T03:54:38;7.40;;;4.35;;
15317;SDS011;7759;52.528;13.346;2023-07-29T03:57:05;7.30;;;5.70;;
15317;SDS011;7759;52.528;13.346;2023-07-29T03:59:32;6.70;;;4.38;;
15317;SDS011;7759;52.528;13.346;2023-07-29T04:01:58;5.68;;;4.85;;
15317;SDS011;7759;52.528;13.346;2023-07-29T04:04:24;4.68;;;4.10;;
15317;SDS011;7759;52.528;13.346;2023-07-29T04:06:50;6.97;;;4.97;;
15317;SDS011;7759;52.528;13.346;2023-07-29T04:09:15;5.15;;;4.20;;
15317;SDS011;7759;52.528;13.346;2023-07-29T04:11:41;6.10;;;4.72;;
15317;SDS011;7759;52.528;13.346;2023-07-29T04:14:07;6.88;;;4.78;;
15317;SDS011;7759;52.528;13.346;2023-07-29T04:16:33;5.82;;;4.18;;
15317;SDS011;7759;52.528;13.346;2023-07-29T04:18:59;7.20;;;4.38;;
15317;SDS011;7759;52.528;13.346;2023-07-29T04:21:25;5.72;;;4.50;;
15317;SDS011;7759;52.528;13.346;2023-07-29T04:23:51;5.90;;;4.57;;
15317;SDS011;7759;52.528;13.346;2023-07-29T04:26:17;5.40;;;4.60;;
15317;SDS011;7759;52.528;13.346;2023-07-29T04:28:43;5.25;;;4.20;;
15317;SDS011;7759;52.528;13.346;2023-07-29T04:31:09;5.50;;;4.20;;
15317;SDS011;7759;52.528;13.346;2023-07-29T04:33:35;5.20;;;4.30;;
15317;SDS011;7759;52.528;13.346;2023-07-29T04:36:01;5.75;;;4.10;;
15317;SDS011;7759;52.528;13.346;2023-07-29T04:38:29;5.00;;;4.03;;
15317;SDS011;7759;52.528;13.346;2023-07-29T04:40:55;6.70;;;4.22;;
15317;SDS011;7759;52.528;13.346;2023-07-29T04:43:21;5.75;;;4.20;;
15317;SDS011;7759;52.528;13.346;2023-07-29T04:45:47;5.18;;;4.53;;
15317;SDS011;7759;52.528;13.346;2023-07-29T04:48:13;6.82;;;5.53;;
15317;SDS011;7759;52.528;13.346;2023-07-29T04:50:39;6.75;;;3.95;;
15317;SDS011;7759;52.528;13.346;2023-07-29T04:53:06;5.22;;;4.10;;
15317;SDS011;7759;52.528;13.346;2023-07-29T04:55:32;4.18;;;3.50;;
15317;SDS011;7759;52.528;13.346;2023-07-29T04:57:58;6.78;;;4.65;;
15317;SDS011;7759;52.528;13.346;2023-07-29T05:00:25;3.90;;;3.50;;
15317;SDS011;7759;52.528;13.346;2023-07-29T05:02:51;5.03;;;3.60;;
15317;SDS011;7759;52.528;13.346;2023-07-29T05:05:17;4.82;;;4.30;;
15317;SDS011;7759;52.528;13.346;2023-07-29T05:07:42;4.40;;;4.00;;
15317;SDS011;7759;52.528;13.346;2023-07-29T05:10:08;10.23;;;3.97;;
15317;SDS011;7759;52.528;13.346;2023-07-29T05:12:34;6.25;;;4.28;;
15317;SDS011;7759;52.528;13.346;2023-07-29T05:15:00;4.47;;;3.88;;
15317;SDS011;7759;52.528;13.346;2023-07-29T05:17:26;5.32;;;3.72;;
15317;SDS011;7759;52.528;13.346;2023-07-29T05:19:52;4.97;;;4.32;;
15317;SDS011;7759;52.528;13.346;2023-07-29T05:22:18;4.97;;;3.47;;
15317;SDS011;7759;52.528;13.346;2023-07-29T05:24:44;6.90;;;4.07;;
15317;SDS011;7759;52.528;13.346;2023-07-29T05:27:10;4.30;;;3.50;;
15317;SDS011;7759;52.528;13.346;2023-07-29T05:29:36;5.20;;;4.07;;
15317;SDS011;7759;52.528;13.346;2023-07-29T05:32:02;6.35;;;4.22;;
15317;SDS011;7759;52.528;13.346;2023-07-29T05:34:28;4.13;;;3.72;;
15317;SDS011;7759;52.528;13.346;2023-07-29T05:36:54;4.88;;;3.92;;
15317;SDS011;7759;52.528;13.346;2023-07-29T05:39:20;5.03;;;4.30;;
15317;SDS011;7759;52.528;13.346;2023-07-29T05:41:45;5.32;;;4.10;;
15317;SDS011;7759;52.528;13.346;2023-07-29T05:44:12;5.05;;;4.13;;
15317;SDS011;7759;52.528;13.346;2023-07-29T05:46:38;7.18;;;4.32;;
15317;SDS011;7759;52.528;13.346;2023-07-29T05:49:04;4.35;;;3.95;;
15317;SDS011;7759;52.528;13.346;2023-07-29T05:51:29;4.93;;;4.10;;
15317;SDS011;7759;52.528;13.346;2023-07-29T05:53:55;5.07;;;4.10;;
15317;SDS011;7759;52.528;13.346;2023-07-29T05:56:21;4.40;;;3.58;;
15317;SDS011;7759;52.528;13.346;2023-07-29T05:58:47;5.93;;;4.28;;
15317;SDS011;7759;52.528;13.346;2023-07-29T06:01:13;5.82;;;4.00;;
15317;SDS011;7759;52.528;13.346;2023-07-29T06:03:39;5.43;;;3.42;;
15317;SDS011;7759;52.528;13.346;2023-07-29T06:06:05;4.32;;;3.80;;
15317;SDS011;7759;52.528;13.346;2023-07-29T06:08:31;4.15;;;3.75;;
15317;SDS011;7759;52.528;13.346;2023-07-29T06:10:59;4.35;;;3.30;;
15317;SDS011;7759;52.528;13.346;2023-07-29T06:13:25;4.40;;;3.65;;
15317;SDS011;7759;52.528;13.346;2023-07-29T06:15:51;5.07;;;3.75;;
15317;SDS011;7759;52.528;13.346;2023-07-29T06:18:17;3.97;;;3.55;;
15317;SDS011;7759;52.528;13.346;2023-07-29T06:20:42;4.30;;;3.45;;
15317;SDS011;7759;52.528;13.346;2023-07-29T06:23:08;3.72;;;3.38;;
15317;SDS011;7759;52.528;13.346;2023-07-29T06:25:34;3.88;;;3.47;;
15317;SDS011;7759;52.528;13.346;2023-07-29T06:28:00;3.88;;;3.40;;
15317;SDS011;7759;52.528;13.346;2023-07-29T06:30:26;4.60;;;3.30;;
15317;SDS011;7759;52.528;13.346;2023-07-29T06:32:52;3.60;;;3.25;;
15317;SDS011;7759;52.528;13.346;2023-07-29T06:35:18;4.07;;;3.63;;
15317;SDS011;7759;52.528;13.346;2023-07-29T06:37:44;3.60;;;3.30;;
15317;SDS011;7759;52.528;13.346;2023-07-29T06:40:10;3.72;;;3.08;;
15317;SDS011;7759;52.528;13.346;2023-07-29T06:42:36;4.35;;;3.42;;
15317;SDS011;7759;52.528;13.346;2023-07-29T06:45:02;2.92;;;2.63;;
15317;SDS011;7759;52.528;13.346;2023-07-29T06:47:28;3.45;;;2.90;;
15317;SDS011;7759;52.528;13.346;2023-07-29T06:49:54;4.57;;;3.10;;
15317;SDS011;7759;52.528;13.346;2023-07-29T06:52:20;3.72;;;3.10;;
15317;SDS011;7759;52.528;13.346;2023-07-29T06:54:46;3.50;;;3.17;;
15317;SDS011;7759;52.528;13.346;2023-07-29T06:57:12;4.07;;;3.25;;
15317;SDS011;7759;52.528;13.346;2023-07-29T06:59:37;3.30;;;2.80;;
15317;SDS011;7759;52.528;13.346;2023-07-29T07:02:03;4.30;;;3.25;;
15317;SDS011;7759;52.528;13.346;2023-07-29T07:04:29;4.78;;;4.00;;
15317;SDS011;7759;52.528;13.346;2023-07-29T07:06:55;3.63;;;3.10;;
15317;SDS011;7759;52.528;13.346;2023-07-29T07:09:21;2.97;;;2.67;;
15317;SDS011;7759;52.528;13.346;2023-07-29T07:11:47;3.25;;;3.00;;
15317;SDS011;7759;52.528;13.346;2023-07-29T07:14:13;4.32;;;3.45;;
15317;SDS011;7759;52.528;13.346;2023-07-29T07:16:39;6.43;;;3.35;;
15317;SDS011;7759;52.528;13.346;2023-07-29T07:19:05;3.47;;;2.90;;
15317;SDS011;7759;52.528;13.346;2023-07-29T07:21:31;3.17;;;2.88;;
15317;SDS011;7759;52.528;13.346;2023-07-29T07:23:57;3.00;;;2.55;;
15317;SDS011;7759;52.528;13.346;2023-07-29T07:26:23;3.53;;;3.22;;
15317;SDS011;7759;52.528;13.346;2023-07-29T07:28:49;4.28;;;3.67;;
15317;SDS011;7759;52.528;13.346;2023-07-29T07:31:16;3.95;;;3.53;;
15317;SDS011;7759;52.528;13.346;2023-07-29T07:33:42;4.40;;;3.55;;
15317;SDS011;7759;52.528;13.346;2023-07-29T07:36:08;4.30;;;3.88;;
15317;SDS011;7759;52.528;13.346;2023-07-29T07:38:34;5.47;;;3.72;;
15317;SDS011;7759;52.528;13.346;2023-07-29T07:41:00;3.50;;;3.20;;
15317;SDS011;7759;52.528;13.346;2023-07-29T07:43:26;4.10;;;3.70;;
15317;SDS011;7759;52.528;13.346;2023-07-29T07:45:57;3.53;;;3.10;;
15317;SDS011;7759;52.528;13.346;2023-07-29T07:48:23;3.85;;;3.55;;
15317;SDS011;7759;52.528;13.346;2023-07-29T07:50:49;4.70;;;3.95;;
15317;SDS011;7759;52.528;13.346;2023-07-29T07:53:15;6.93;;;4.05;;
15317;SDS011;7759;52.528;13.346;2023-07-29T07:55:41;3.80;;;3.47;;
15317;SDS011;7759;52.528;13.346;2023-07-29T07:58:07;4.47;;;3.67;;
15317;SDS011;7759;52.528;13.346;2023-07-29T08:00:33;6.20;;;4.05;;
15317;SDS011;7759;52.528;13.346;2023-07-29T08:02:58;4.97;;;3.47;;
15317;SDS011;7759;52.528;13.346;2023-07-29T08:05:24;5.47;;;3.40;;
15317;SDS011;7759;52.528;13.346;2023-07-29T08:07:50;3.83;;;3.10;;
15317;SDS011;7759;52.528;13.346;2023-07-29T08:10:16;3.00;;;2.70;;
15317;SDS011;7759;52.528;13.346;2023-07-29T08:12:42;2.75;;;2.28;;
15317;SDS011;7759;52.528;13.346;2023-07-29T08:15:18;2.47;;;2.28;;
15317;SDS011;7759;52.528;13.346;2023-07-29T08:17:45;2.67;;;2.40;;
15317;SDS011;7759;52.528;13.346;2023-07-29T08:20:11;2.40;;;2.20;;
15317;SDS011;7759;52.528;13.346;2023-07-29T08:22:37;2.38;;;2.17;;
15317;SDS011;7759;52.528;13.346;2023-07-29T08:25:03;3.03;;;2.17;;
15317;SDS011;7759;52.528;13.346;2023-07-29T08:27:29;2.58;;;2.38;;
15317;SDS011;7759;52.528;13.346;2023-07-29T08:29:54;3.35;;;2.67;;
15317;SDS011;7759;52.528;13.346;2023-07-29T08:32:20;4.05;;;2.50;;
15317;SDS011;7759;52.528;13.346;2023-07-29T08:34:46;3.15;;;2.70;;
15317;SDS011;7759;52.528;13.346;2023-07-29T08:37:12;4.10;;;3.20;;
15317;SDS011;7759;52.528;13.346;2023-07-29T08:39:38;2.90;;;2.38;;
15317;SDS011;7759;52.528;13.346;2023-07-29T08:42:04;2.53;;;2.33;;
15317;SDS011;7759;52.528;13.346;2023-07-29T08:44:43;3.28;;;2.97;;
15317;SDS011;7759;52.528;13.346;2023-07-29T08:47:09;5.55;;;3.05;;
15317;SDS011;7759;52.528;13.346;2023-07-29T08:49:36;2.95;;;2.15;;
15317;SDS011;7759;52.528;13.346;2023-07-29T08:52:02;4.55;;;2.65;;
15317;SDS011;7759;52.528;13.346;2023-07-29T08:54:29;4.93;;;2.95;;
15317;SDS011;7759;52.528;13.346;2023-07-29T08:56:55;2.53;;;2.33;;
15317;SDS011;7759;52.528;13.346;2023-07-29T08:59:21;4.32;;;2.50;;
15317;SDS011;7759;52.528;13.346;2023-07-29T09:01:47;2.28;;;2.08;;
15317;SDS011;7759;52.528;13.346;2023-07-29T09:04:13;2.35;;;2.15;;
15317;SDS011;7759;52.528;13.346;2023-07-29T09:06:39;4.45;;;2.40;;
15317;SDS011;7759;52.528;13.346;2023-07-29T09:09:07;4.38;;;2.53;;
15317;SDS011;7759;52.528;13.346;2023-07-29T09:11:34;2.58;;;1.88;;
15317;SDS011;7759;52.528;13.346;2023-07-29T09:14:00;4.90;;;2.17;;
15317;SDS011;7759;52.528;13.346;2023-07-29T09:16:26;4.43;;;1.92;;
15317;SDS011;7759;52.528;13.346;2023-07-29T09:18:52;2.17;;;1.98;;
15317;SDS011;7759;52.528;13.346;2023-07-29T09:21:22;3.40;;;3.10;;
15317;SDS011;7759;52.528;13.346;2023-07-29T09:23:49;5.68;;;2.30;;
15317;SDS011;7759;52.528;13.346;2023-07-29T09:26:21;2.83;;;2.63;;
15317;SDS011;7759;52.528;13.346;2023-07-29T09:28:51;2.28;;;2.08;;
15317;SDS011;7759;52.528;13.346;2023-07-29T09:31:21;4.15;;;2.47;;
15317;SDS011;7759;52.528;13.346;2023-07-29T09:33:47;2.78;;;2.35;;
15317;SDS011;7759;52.528;13.346;2023-07-29T09:36:13;3.97;;;2.40;;
15317;SDS011;7759;52.528;13.346;2023-07-29T09:38:39;2.58;;;2.38;;
15317;SDS011;7759;52.528;13.346;2023-07-29T09:41:05;2.90;;;2.45;;
15317;SDS011;7759;52.528;13.346;2023-07-29T09:43:32;2.83;;;2.40;;
15317;SDS011;7759;52.528;13.346;2023-07-29T09:46:02;2.20;;;1.98;;
15317;SDS011;7759;52.528;13.346;2023-07-29T09:48:28;4.63;;;2.83;;
15317;SDS011;7759;52.528;13.346;2023-07-29T09:50:54;2.42;;;2.22;;
15317;SDS011;7759;52.528;13.346;2023-07-29T09:53:20;2.38;;;2.17;;
15317;SDS011;7759;52.528;13.346;2023-07-29T09:55:47;2.50;;;2.30;;
15317;SDS011;7759;52.528;13.346;2023-07-29T09:58:13;2.30;;;2.10;;
15317;SDS011;7759;52.528;13.346;2023-07-29T10:00:39;6.03;;;2.20;;
15317;SDS011;7759;52.528;13.346;2023-07-29T10:03:06;2.63;;;1.98;;
15317;SDS011;7759;52.528;13.346;2023-07-29T10:05:32;2.30;;;2.10;;
15317;SDS011;7759;52.528;13.346;2023-07-29T10:08:00;2.20;;;2.00;;
15317;SDS011;7759;52.528;13.346;2023-07-29T10:10:27;2.88;;;2.10;;
15317;SDS011;7759;52.528;13.346;2023-07-29T10:12:54;1.95;;;1.85;;
15317;SDS011;7759;52.528;13.346;2023-07-29T10:15:20;2.05;;;1.85;;
15317;SDS011;7759;52.528;13.346;2023-07-29T10:17:46;2.20;;;2.00;;
15317;SDS011;7759;52.528;13.346;2023-07-29T10:20:12;2.55;;;2.08;;
15317;SDS011;7759;52.528;13.346;2023-07-29T10:22:39;2.67;;;2.15;;
15317;SDS011;7759;52.528;13.346;2023-07-29T10:25:07;5.65;;;1.95;;
15317;SDS011;7759;52.528;13.346;2023-07-29T10:27:41;1.85;;;1.73;;
15317;SDS011;7759;52.528;13.346;2023-07-29T10:30:08;3.85;;;2.70;;
15317;SDS011;7759;52.528;13.346;2023-07-29T10:32:34;3.17;;;1.83;;
15317;SDS011;7759;52.528;13.346;2023-07-29T10:35:00;1.67;;;1.58;;
15317;SDS011;7759;52.528;13.346;2023-07-29T10:37:26;2.83;;;1.73;;
15317;SDS011;7759;52.528;13.346;2023-07-29T10:39:53;2.10;;;1.95;;
15317;SDS011;7759;52.528;13.346;2023-07-29T10:42:19;1.80;;;1.70;;
15317;SDS011;7759;52.528;13.346;2023-07-29T10:44:46;2.20;;;1.90;;
15317;SDS011;7759;52.528;13.346;2023-07-29T10:47:21;1.50;;;1.40;;
15317;SDS011;7759;52.528;13.346;2023-07-29T10:49:48;1.80;;;1.70;;
15317;SDS011;7759;52.528;13.346;2023-07-29T10:52:15;2.00;;;1.90;;
15317;SDS011;7759;52.528;13.346;2023-07-29T10:54:42;2.95;;;1.70;;
15317;SDS011;7759;52.528;13.346;2023-07-29T10:57:08;2.38;;;2.17;;
15317;SDS011;7759;52.528;13.346;2023-07-29T10:59:38;1.73;;;1.63;;
15317;SDS011;7759;52.528;13.346;2023-07-29T11:02:11;3.80;;;1.60;;
15317;SDS011;7759;52.528;13.346;2023-07-29T11:04:50;3.35;;;2.20;;
15317;SDS011;7759;52.528;13.346;2023-07-29T11:15:00;2.80;;;1.88;;
15317;SDS011;7759;52.528;13.346;2023-07-29T11:17:28;3.80;;;1.60;;
15317;SDS011;7759;52.528;13.346;2023-07-29T11:19:55;1.73;;;1.40;;
15317;SDS011;7759;52.528;13.346;2023-07-29T11:22:22;1.20;;;1.10;;
15317;SDS011;7759;52.528;13.346;2023-07-29T11:24:48;1.88;;;1.25;;
15317;SDS011;7759;52.528;13.346;2023-07-29T11:27:13;1.33;;;1.10;;
15317;SDS011;7759;52.528;13.346;2023-07-29T11:29:39;2.60;;;0.85;;
15317;SDS011;7759;52.528;13.346;2023-07-29T11:32:05;1.23;;;0.88;;
15317;SDS011;7759;52.528;13.346;2023-07-29T11:34:32;1.00;;;0.80;;
15317;SDS011;7759;52.528;13.346;2023-07-29T11:36:57;1.65;;;0.77;;
15317;SDS011;7759;52.528;13.346;2023-07-29T11:39:23;1.48;;;0.95;;
15317;SDS011;7759;52.528;13.346;2023-07-29T11:41:49;1.50;;;0.80;;
15317;SDS011;7759;52.528;13.346;2023-07-29T11:44:18;0.70;;;0.70;;
15317;SDS011;7759;52.528;13.346;2023-07-29T11:46:44;3.75;;;0.93;;
15317;SDS011;7759;52.528;13.346;2023-07-29T11:49:10;1.30;;;0.80;;
15317;SDS011;7759;52.528;13.346;2023-07-29T11:51:36;1.50;;;1.10;;
15317;SDS011;7759;52.528;13.346;2023-07-29T11:54:02;1.00;;;1.00;;
15317;SDS011;7759;52.528;13.346;2023-07-29T11:56:29;3.65;;;1.33;;
15317;SDS011;7759;52.528;13.346;2023-07-29T11:58:55;1.88;;;0.80;;
15317;SDS011;7759;52.528;13.346;2023-07-29T12:01:21;2.00;;;1.20;;
15317;SDS011;7759;52.528;13.346;2023-07-29T12:03:47;1.88;;;1.10;;
15317;SDS011;7759;52.528;13.346;2023-07-29T12:06:14;3.60;;;1.27;;
15317;SDS011;7759;52.528;13.346;2023-07-29T12:08:40;2.00;;;1.13;;
15317;SDS011;7759;52.528;13.346;2023-07-29T12:11:07;2.28;;;1.30;;
15317;SDS011;7759;52.528;13.346;2023-07-29T12:13:33;1.83;;;1.38;;
15317;SDS011;7759;52.528;13.346;2023-07-29T12:16:02;0.80;;;0.75;;
15317;SDS011;7759;52.528;13.346;2023-07-29T12:18:31;1.30;;;1.02;;
15317;SDS011;7759;52.528;13.346;2023-07-29T12:20:57;3.08;;;1.35;;
15317;SDS011;7759;52.528;13.346;2023-07-29T12:23:24;1.55;;;1.13;;
15317;SDS011;7759;52.528;13.346;2023-07-29T12:25:51;0.88;;;0.88;;
15317;SDS011;7759;52.528;13.346;2023-07-29T12:28:17;1.40;;;0.90;;
15317;SDS011;7759;52.528;13.346;2023-07-29T12:30:43;1.63;;;0.90;;
15317;SDS011;7759;52.528;13.346;2023-07-29T12:33:09;1.00;;;0.90;;
15317;SDS011;7759;52.528;13.346;2023-07-29T12:35:35;1.65;;;1.10;;
15317;SDS011;7759;52.528;13.346;2023-07-29T12:38:02;1.73;;;1.33;;
15317;SDS011;7759;52.528;13.346;2023-07-29T12:40:28;1.30;;;0.93;;
15317;SDS011;7759;52.528;13.346;2023-07-29T12:42:54;0.82;;;0.77;;
15317;SDS011;7759;52.528;13.346;2023-07-29T12:45:20;1.20;;;1.10;;
15317;SDS011;7759;52.528;13.346;2023-07-29T12:47:48;2.38;;;1.30;;
15317;SDS011;7759;52.528;13.346;2023-07-29T12:50:15;1.70;;;1.40;;
15317;SDS011;7759;52.528;13.346;2023-07-29T12:52:41;3.05;;;1.27;;
15317;SDS011;7759;52.528;13.346;2023-07-29T12:55:07;3.50;;;1.73;;
15317;SDS011;7759;52.528;13.346;2023-07-29T12:57:37;2.72;;;2.10;;
15317;SDS011;7759;52.528;13.346;2023-07-29T13:00:03;2.75;;;1.75;;
15317;SDS011;7759;52.528;13.346;2023-07-29T13:02:29;2.10;;;1.88;;
15317;SDS011;7759;52.528;13.346;2023-07-29T13:04:55;2.03;;;1.80;;
15317;SDS011;7759;52.528;13.346;2023-07-29T13:07:21;2.38;;;2.08;;
15317;SDS011;7759;52.528;13.346;2023-07-29T13:09:47;3.33;;;2.08;;
15317;SDS011;7759;52.528;13.346;2023-07-29T13:12:13;2.08;;;1.88;;
15317;SDS011;7759;52.528;13.346;2023-07-29T13:14:39;2.10;;;1.90;;
15317;SDS011;7759;52.528;13.346;2023-07-29T13:17:05;2.25;;;2.03;;
15317;SDS011;7759;52.528;13.346;2023-07-29T13:19:31;2.20;;;1.98;;
15317;SDS011;7759;52.528;13.346;2023-07-29T13:21:57;2.60;;;2.05;;
15317;SDS011;7759;52.528;13.346;2023-07-29T13:24:23;2.20;;;2.00;;
15317;SDS011;7759;52.528;13.346;2023-07-29T13:26:49;2.47;;;2.08;;
15317;SDS011;7759;52.528;13.346;2023-07-29T13:29:14;3.28;;;1.80;;
15317;SDS011;7759;52.528;13.346;2023-07-29T13:31:40;2.08;;;1.88;;
15317;SDS011;7759;52.528;13.346;2023-07-29T13:34:06;2.00;;;1.60;;
15317;SDS011;7759;52.528;13.346;2023-07-29T13:36:32;1.73;;;1.60;;
15317;SDS011;7759;52.528;13.346;2023-07-29T13:38:58;2.33;;;1.45;;
15317;SDS011;7759;52.528;13.346;2023-07-29T13:41:24;1.63;;;1.52;;
15317;SDS011;7759;52.528;13.346;2023-07-29T13:43:50;2.92;;;1.80;;
15317;SDS011;7759;52.528;13.346;2023-07-29T13:46:16;1.92;;;1.42;;
15317;SDS011;7759;52.528;13.346;2023-07-29T13:48:45;2.83;;;1.75;;
15317;SDS011;7759;52.528;13.346;2023-07-29T13:51:11;1.45;;;1.20;;
15317;SDS011;7759;52.528;13.346;2023-07-29T13:53:36;1.38;;;1.23;;
15317;SDS011;7759;52.528;13.346;2023-07-29T13:56:03;1.45;;;1.35;;
15317;SDS011;7759;52.528;13.346;2023-07-29T13:58:30;2.20;;;1.42;;
15317;SDS011;7759;52.528;13.346;2023-07-29T14:00:55;1.35;;;1.20;;
15317;SDS011;7759;52.528;13.346;2023-07-29T14:03:21;1.50;;;1.40;;
15317;SDS011;7759;52.528;13.346;2023-07-29T14:05:47;4.10;;;1.10;;
15317;SDS011;7759;52.528;13.346;2023-07-29T14:08:13;2.47;;;1.20;;
15317;SDS011;7759;52.528;13.346;2023-07-29T14:10:39;1.88;;;1.17;;
15317;SDS011;7759;52.528;13.346;2023-07-29T14:13:05;1.30;;;1.20;;
15317;SDS011;7759;52.528;13.346;2023-07-29T14:15:31;1.40;;;1.30;;
15317;SDS011;7759;52.528;13.346;2023-07-29T14:18:00;1.08;;;0.98;;
15317;SDS011;7759;52.528;13.346;2023-07-29T14:20:27;1.27;;;1.17;;
15317;SDS011;7759;52.528;13.346;2023-07-29T14:22:53;1.48;;;1.38;;
15317;SDS011;7759;52.528;13.346;2023-07-29T14:25:19;1.30;;;1.20;;
15317;SDS011;7759;52.528;13.346;2023-07-29T14:27:45;1.20;;;1.10;;
15317;SDS011;7759;52.528;13.346;2023-07-29T14:30:11;1.70;;;1.02;;
15317;SDS011;7759;52.528;13.346;2023-07-29T14:32:36;1.92;;;1.30;;
15317;SDS011;7759;52.528;13.346;2023-07-29T14:35:03;1.55;;;1.10;;
15317;SDS011;7759;52.528;13.346;2023-07-29T14:37:31;1.20;;;1.10;;
15317;SDS011;7759;52.528;13.346;2023-07-29T14:39:58;1.33;;;1.23;;
15317;SDS011;7759;52.528;13.346;2023-07-29T14:42:24;2.67;;;1.70;;
15317;SDS011;7759;52.528;13.346;2023-07-29T14:44:50;2.78;;;1.67;;
15317;SDS011;7759;52.528;13.346;2023-07-29T14:47:16;1.90;;;1.70;;
15317;SDS011;7759;52.528;13.346;2023-07-29T14:49:42;1.52;;;1.42;;
15317;SDS011;7759;52.528;13.346;2023-07-29T14:52:07;2.17;;;1.58;;
15317;SDS011;7759;52.528;13.346;2023-07-29T14:54:33;1.67;;;1.40;;
15317;SDS011;7759;52.528;13.346;2023-07-29T14:56:59;1.95;;;1.48;;